sensor_id;sensor_type;location;lat;lon;timestamp;pressure;altitude;pressure_sealevel;temperature;humidity
76164;BME280;64897;50.816;4.422;2023-02-18T17:18:39;101492.53;;;16.59;60.00
76164;BME280;64897;50.816;4.422;2023-02-18T17:21:15;101498.47;;;15.96;62.04
76164;BME280;64897;50.816;4.422;2023-02-18T17:23:42;101489.38;;;15.67;63.49
76164;BME280;64897;50.816;4.422;2023-02-18T17:28:41;101495.41;;;15.45;64.23
76164;BME280;64897;50.816;4.422;2023-02-18T17:31:13;101493.94;;;15.41;63.52
76164;BME280;64897;50.816;4.422;2023-02-18T17:33:41;101491.59;;;15.38;64.05
76164;BME280;64897;50.816;4.422;2023-02-18T17:36:09;101497.06;;;15.35;64.01
76164;BME280;64897;50.816;4.422;2023-02-18T17:38:36;101499.81;;;15.33;64.76
76164;BME280;64897;50.816;4.422;2023-02-18T17:41:04;101494.53;;;15.33;64.04
76164;BME280;64897;50.816;4.422;2023-02-18T17:43:31;101486.88;;;15.30;64.66
76164;BME280;64897;50.816;4.422;2023-02-18T17:45:59;101482.31;;;15.32;64.23
76164;BME280;64897;50.816;4.422;2023-02-18T17:48:26;101492.84;;;15.32;64.50
76164;BME280;64897;50.816;4.422;2023-02-18T17:50:53;101496.47;;;15.31;64.64
76164;BME280;64897;50.816;4.422;2023-02-18T17:53:21;101483.78;;;15.36;64.44
76164;BME280;64897;50.816;4.422;2023-02-18T17:55:48;101490.00;;;15.35;64.03
76164;BME280;64897;50.816;4.422;2023-02-18T17:58:15;101494.31;;;15.36;64.37
76164;BME280;64897;50.816;4.422;2023-02-18T18:00:49;101483.78;;;15.36;64.29
76164;BME280;64897;50.816;4.422;2023-02-18T18:03:16;101489.66;;;15.40;64.06
76164;BME280;64897;50.816;4.422;2023-02-18T18:05:45;101495.78;;;15.40;64.15
76164;BME280;64897;50.816;4.422;2023-02-18T18:08:12;101496.00;;;15.37;64.24
76164;BME280;64897;50.816;4.422;2023-02-18T18:10:54;101491.59;;;15.38;64.36
76164;BME280;64897;50.816;4.422;2023-02-18T18:13:26;101500.28;;;15.38;64.51
76164;BME280;64897;50.816;4.422;2023-02-18T18:15:53;101495.03;;;15.38;64.69
76164;BME280;64897;50.816;4.422;2023-02-18T18:18:21;101497.66;;;15.38;64.56
76164;BME280;64897;50.816;4.422;2023-02-18T18:20:51;101496.84;;;15.38;64.10
76164;BME280;64897;50.816;4.422;2023-02-18T18:23:20;101503.06;;;15.37;64.18
76164;BME280;64897;50.816;4.422;2023-02-18T18:25:49;101503.16;;;15.35;64.59
76164;BME280;64897;50.816;4.422;2023-02-18T18:28:16;101497.88;;;15.35;63.90
76164;BME280;64897;50.816;4.422;2023-02-18T18:30:46;101498.88;;;15.34;64.56
76164;BME280;64897;50.816;4.422;2023-02-18T18:33:24;101502.34;;;15.35;64.22
76164;BME280;64897;50.816;4.422;2023-02-18T18:35:53;101502.44;;;15.33;64.21
76164;BME280;64897;50.816;4.422;2023-02-18T18:38:21;101492.75;;;15.34;64.62
76164;BME280;64897;50.816;4.422;2023-02-18T18:40:49;101494.53;;;15.33;64.21
76164;BME280;64897;50.816;4.422;2023-02-18T18:43:19;101496.22;;;15.34;64.13
76164;BME280;64897;50.816;4.422;2023-02-18T18:45:47;101501.59;;;15.33;63.89
76164;BME280;64897;50.816;4.422;2023-02-18T18:48:14;101495.63;;;15.31;64.02
76164;BME280;64897;50.816;4.422;2023-02-18T18:50:41;101493.94;;;15.30;64.52
76164;BME280;64897;50.816;4.422;2023-02-18T18:53:20;101493.94;;;15.30;64.10
76164;BME280;64897;50.816;4.422;2023-02-18T18:55:49;101488.66;;;15.30;64.29
76164;BME280;64897;50.816;4.422;2023-02-18T18:58:17;101491.19;;;15.31;64.23
76164;BME280;64897;50.816;4.422;2023-02-18T19:00:48;101487.84;;;15.29;64.32
76164;BME280;64897;50.816;4.422;2023-02-18T19:03:16;101488.66;;;15.30;64.00
76164;BME280;64897;50.816;4.422;2023-02-18T19:05:44;101484.00;;;15.33;64.59
76164;BME280;64897;50.816;4.422;2023-02-18T19:08:12;101487.59;;;15.32;64.13
76164;BME280;64897;50.816;4.422;2023-02-18T19:10:44;101484.00;;;15.33;64.46
76164;BME280;64897;50.816;4.422;2023-02-18T19:13:29;101483.16;;;15.33;64.81
76164;BME280;64897;50.816;4.422;2023-02-18T19:19:01;101498.13;;;15.32;64.01
76164;BME280;64897;50.816;4.422;2023-02-18T19:21:27;101494.69;;;15.32;64.39
76164;BME280;64897;50.816;4.422;2023-02-18T19:23:54;101494.53;;;15.33;63.88
76164;BME280;64897;50.816;4.422;2023-02-18T19:26:21;101482.06;;;15.24;63.92
76164;BME280;64897;50.816;4.422;2023-02-18T19:28:48;101485.22;;;15.29;64.60
76164;BME280;64897;50.816;4.422;2023-02-18T19:31:15;101480.91;;;15.28;64.86
76164;BME280;64897;50.816;4.422;2023-02-18T19:33:42;101480.91;;;15.28;64.36
76164;BME280;64897;50.816;4.422;2023-02-18T19:36:11;101482.59;;;15.29;64.52
76164;BME280;64897;50.816;4.422;2023-02-18T19:38:40;101478.25;;;15.28;64.62
76164;BME280;64897;50.816;4.422;2023-02-18T19:41:08;101458.38;;;15.24;64.70
76164;BME280;64897;50.816;4.422;2023-02-18T19:43:34;101462.69;;;15.25;65.03
76164;BME280;64897;50.816;4.422;2023-02-18T19:46:13;101454.78;;;15.25;64.73
76164;BME280;64897;50.816;4.422;2023-02-18T19:48:41;101449.28;;;15.28;64.42
76164;BME280;64897;50.816;4.422;2023-02-18T19:51:08;101446.66;;;15.28;64.47
76164;BME280;64897;50.816;4.422;2023-02-18T19:53:35;101448.34;;;15.29;64.27
76164;BME280;64897;50.816;4.422;2023-02-18T19:56:03;101445.72;;;15.29;64.07
76164;BME280;64897;50.816;4.422;2023-02-18T19:58:33;101443.09;;;15.29;64.08
76164;BME280;64897;50.816;4.422;2023-02-18T20:01:00;101440.44;;;15.29;64.13
76164;BME280;64897;50.816;4.422;2023-02-18T20:03:27;101431.56;;;15.30;64.67
76164;BME280;64897;50.816;4.422;2023-02-18T20:05:54;101438.75;;;15.28;64.51
76164;BME280;64897;50.816;4.422;2023-02-18T20:08:21;101427.28;;;15.29;64.53
76164;BME280;64897;50.816;4.422;2023-02-18T20:10:56;101431.56;;;15.30;64.19
76164;BME280;64897;50.816;4.422;2023-02-18T20:13:23;101428.84;;;15.32;64.21
76164;BME280;64897;50.816;4.422;2023-02-18T20:15:49;101438.53;;;15.31;64.11
76164;BME280;64897;50.816;4.422;2023-02-18T20:18:16;101432.41;;;15.31;64.13
76164;BME280;64897;50.816;4.422;2023-02-18T20:20:47;101440.44;;;15.29;64.33
76164;BME280;64897;50.816;4.422;2023-02-18T20:23:14;101432.28;;;15.32;64.42
76164;BME280;64897;50.816;4.422;2023-02-18T20:25:41;101430.72;;;15.30;64.34
76164;BME280;64897;50.816;4.422;2023-02-18T20:28:07;101424.66;;;15.29;64.71
76164;BME280;64897;50.816;4.422;2023-02-18T20:30:34;101422.72;;;15.31;63.87
76164;BME280;64897;50.816;4.422;2023-02-18T20:33:01;101417.47;;;15.31;64.54
76164;BME280;64897;50.816;4.422;2023-02-18T20:35:28;101415.66;;;15.32;63.89
76164;BME280;64897;50.816;4.422;2023-02-18T20:37:55;101415.59;;;15.78;62.95
76164;BME280;64897;50.816;4.422;2023-02-18T20:40:21;101416.78;;;15.63;63.49
76164;BME280;64897;50.816;4.422;2023-02-18T20:42:48;101416.41;;;15.56;63.62
76164;BME280;64897;50.816;4.422;2023-02-18T20:45:15;101406.84;;;15.55;63.43
76164;BME280;64897;50.816;4.422;2023-02-18T20:47:41;101408.88;;;15.52;63.92
76164;BME280;64897;50.816;4.422;2023-02-18T20:50:08;101405.53;;;15.50;63.58
76164;BME280;64897;50.816;4.422;2023-02-18T20:52:35;101409.97;;;15.49;63.84
76164;BME280;64897;50.816;4.422;2023-02-18T20:55:03;101411.84;;;15.47;63.63
76164;BME280;64897;50.816;4.422;2023-02-18T20:57:29;101405.25;;;15.41;64.00
76164;BME280;64897;50.816;4.422;2023-02-18T20:59:56;101399.88;;;15.43;64.33
76164;BME280;64897;50.816;4.422;2023-02-18T21:02:23;101392.06;;;15.41;64.29
76164;BME280;64897;50.816;4.422;2023-02-18T21:04:50;101396.25;;;15.44;63.99
76164;BME280;64897;50.816;4.422;2023-02-18T21:07:17;101401.75;;;15.41;63.79
76164;BME280;64897;50.816;4.422;2023-02-18T21:09:44;101402.59;;;15.41;64.14
76164;BME280;64897;50.816;4.422;2023-02-18T21:12:11;101399.97;;;15.41;64.50
76164;BME280;64897;50.816;4.422;2023-02-18T21:14:38;101405.25;;;15.41;64.22
76164;BME280;64897;50.816;4.422;2023-02-18T21:17:04;101397.34;;;15.41;63.99
76164;BME280;64897;50.816;4.422;2023-02-18T21:19:31;101394.94;;;15.38;63.95
76164;BME280;64897;50.816;4.422;2023-02-18T21:21:59;101414.22;;;15.39;64.34
76164;BME280;64897;50.816;4.422;2023-02-18T21:24:26;101417.69;;;15.39;64.16
76164;BME280;64897;50.816;4.422;2023-02-18T21:26:53;101409.66;;;15.41;64.47
76164;BME280;64897;50.816;4.422;2023-02-18T21:29:20;101408.84;;;15.40;64.20
76164;BME280;64897;50.816;4.422;2023-02-18T21:31:47;101420.34;;;15.39;64.28
76164;BME280;64897;50.816;4.422;2023-02-18T21:34:15;101423.19;;;15.36;64.33
76164;BME280;64897;50.816;4.422;2023-02-18T21:36:42;101415.28;;;15.36;64.52
76164;BME280;64897;50.816;4.422;2023-02-18T21:39:09;101419.72;;;15.36;64.28
76164;BME280;64897;50.816;4.422;2023-02-18T21:41:38;101417.94;;;15.36;64.27
76164;BME280;64897;50.816;4.422;2023-02-18T21:44:05;101411.72;;;15.37;64.15
76164;BME280;64897;50.816;4.422;2023-02-18T21:46:33;101411.72;;;15.37;63.78
76164;BME280;64897;50.816;4.422;2023-02-18T21:48:59;101405.47;;;15.38;64.18
76164;BME280;64897;50.816;4.422;2023-02-18T21:51:33;101402.84;;;15.38;64.61
76164;BME280;64897;50.816;4.422;2023-02-18T21:56:57;101377.47;;;15.37;64.32
76164;BME280;64897;50.816;4.422;2023-02-18T21:59:26;101381.19;;;15.35;64.30
76164;BME280;64897;50.816;4.422;2023-02-18T22:01:54;101374.84;;;15.37;64.17
76164;BME280;64897;50.816;4.422;2023-02-18T22:04:21;101393.16;;;15.39;64.02
76164;BME280;64897;50.816;4.422;2023-02-18T22:06:47;101416.75;;;15.40;63.95
76164;BME280;64897;50.816;4.422;2023-02-18T22:09:14;101413.13;;;15.41;64.18
76164;BME280;64897;50.816;4.422;2023-02-18T22:11:41;101393.03;;;15.40;64.20
76164;BME280;64897;50.816;4.422;2023-02-18T22:14:12;101392.91;;;15.42;64.28
76164;BME280;64897;50.816;4.422;2023-02-18T22:16:39;101409.66;;;15.41;63.89
76164;BME280;64897;50.816;4.422;2023-02-18T22:19:06;101412.44;;;15.39;63.88
76164;BME280;64897;50.816;4.422;2023-02-18T22:21:33;101414.22;;;15.39;63.78
76164;BME280;64897;50.816;4.422;2023-02-18T22:24:00;101401.06;;;15.39;63.92
76164;BME280;64897;50.816;4.422;2023-02-18T22:26:27;101415.06;;;15.39;63.79
76164;BME280;64897;50.816;4.422;2023-02-18T22:28:56;101415.06;;;15.39;64.40
76164;BME280;64897;50.816;4.422;2023-02-18T22:31:24;101406.22;;;15.40;63.85
76164;BME280;64897;50.816;4.422;2023-02-18T22:33:52;101408.09;;;15.38;63.99
76164;BME280;64897;50.816;4.422;2023-02-18T22:36:21;101407.16;;;15.39;64.19
76164;BME280;64897;50.816;4.422;2023-02-18T22:38:48;101413.50;;;15.37;63.84
76164;BME280;64897;50.816;4.422;2023-02-18T22:41:18;101422.34;;;15.36;63.81
76164;BME280;64897;50.816;4.422;2023-02-18T22:43:45;101412.66;;;15.36;64.02
76164;BME280;64897;50.816;4.422;2023-02-18T22:46:14;101413.59;;;15.35;63.85
76164;BME280;64897;50.816;4.422;2023-02-18T22:48:41;101411.94;;;15.34;64.33
76164;BME280;64897;50.816;4.422;2023-02-18T22:51:20;101413.84;;;15.32;64.34
76164;BME280;64897;50.816;4.422;2023-02-18T22:53:48;101415.78;;;15.30;64.05
76164;BME280;64897;50.816;4.422;2023-02-18T22:56:16;101415.78;;;15.30;64.19
76164;BME280;64897;50.816;4.422;2023-02-18T22:58:45;101416.00;;;15.38;63.86
76164;BME280;64897;50.816;4.422;2023-02-18T23:01:26;101408.94;;;15.39;64.19
76164;BME280;64897;50.816;4.422;2023-02-18T23:03:55;101407.03;;;15.41;63.74
76164;BME280;64897;50.816;4.422;2023-02-18T23:06:23;101409.78;;;15.39;63.86
76164;BME280;64897;50.816;4.422;2023-02-18T23:08:52;101409.78;;;15.39;64.14
76164;BME280;64897;50.816;4.422;2023-02-18T23:11:20;101415.06;;;15.39;64.29
76164;BME280;64897;50.816;4.422;2023-02-18T23:13:47;101411.81;;;15.36;64.06
76164;BME280;64897;50.816;4.422;2023-02-18T23:16:37;101411.22;;;15.32;64.23
76164;BME280;64897;50.816;4.422;2023-02-18T23:19:23;101404.06;;;15.34;64.12
76164;BME280;64897;50.816;4.422;2023-02-18T23:21:50;101397.94;;;15.34;64.27
76164;BME280;64897;50.816;4.422;2023-02-18T23:24:17;101410.16;;;15.35;63.95
76164;BME280;64897;50.816;4.422;2023-02-18T23:26:43;101405.72;;;15.35;64.29
76164;BME280;64897;50.816;4.422;2023-02-18T23:29:10;101407.63;;;15.33;64.43
76164;BME280;64897;50.816;4.422;2023-02-18T23:31:37;101401.88;;;15.28;63.98
76164;BME280;64897;50.816;4.422;2023-02-18T23:34:05;101405.47;;;15.27;64.40
76164;BME280;64897;50.816;4.422;2023-02-18T23:36:34;101402.00;;;15.27;64.28
76164;BME280;64897;50.816;4.422;2023-02-18T23:39:04;101401.28;;;15.25;64.84
76164;BME280;64897;50.816;4.422;2023-02-18T23:41:31;101403.81;;;15.26;64.50
76164;BME280;64897;50.816;4.422;2023-02-18T23:43:57;101403.81;;;15.26;64.83
76164;BME280;64897;50.816;4.422;2023-02-18T23:46:25;101393.50;;;15.23;64.90
76164;BME280;64897;50.816;4.422;2023-02-18T23:48:52;101393.50;;;15.23;64.96
76164;BME280;64897;50.816;4.422;2023-02-18T23:51:20;101400.44;;;15.24;65.22
76164;BME280;64897;50.816;4.422;2023-02-18T23:53:47;101404.03;;;15.23;64.68
76164;BME280;64897;50.816;4.422;2023-02-18T23:58:48;101403.56;;;15.29;64.53
